Time;durP1;ratioP1;P1;durP2;ratioP2;P2;SDS_P1;SDS_P2;PMS_P1;PMS_P2;Temp;Humidity;BMP_temperature;BMP_pressure;BME280_temperature;BME280_humidity;BME280_pressure;Samples;Min_cycle;Max_cycle;Signal;HPM_P1;HPM_P2
2023/08/15 00:00:23;;;;;;;7.18;3.47;;;24.10;60.50;;;;;;5133643;27;20042;-67
2023/08/15 00:02:48;;;;;;;3.97;3.20;;;24.00;60.60;;;;;;5133072;27;20027;-67
2023/08/15 00:05:14;;;;;;;3.75;3.20;;;24.10;60.80;;;;;;5134336;27;20364;-66
2023/08/15 00:07:40;;;;;;;4.32;3.20;;;24.00;61.00;;;;;;5133888;27;20051;-67
2023/08/15 00:10:06;;;;;;;3.78;3.33;;;24.00;61.20;;;;;;5134330;27;20072;-67
2023/08/15 00:12:31;;;;;;;5.05;3.40;;;23.90;61.50;;;;;;5134235;27;20027;-67
2023/08/15 00:14:57;;;;;;;5.50;3.22;;;23.90;61.80;;;;;;5133770;27;20019;-68
2023/08/15 00:17:23;;;;;;;4.90;3.33;;;23.80;62.10;;;;;;5134157;27;20061;-68
2023/08/15 00:19:48;;;;;;;3.45;3.15;;;23.70;62.20;;;;;;5133554;27;20463;-67
2023/08/15 00:22:15;;;;;;;4.07;3.40;;;23.70;62.50;;;;;;5133745;27;20029;-67
2023/08/15 00:24:41;;;;;;;3.90;3.50;;;23.70;62.60;;;;;;5133576;27;20038;-67
2023/08/15 00:27:07;;;;;;;6.30;3.55;;;23.70;62.70;;;;;;5134056;27;20027;-67
2023/08/15 00:29:32;;;;;;;7.28;3.85;;;23.60;63.00;;;;;;5133998;27;20031;-67
2023/08/15 00:31:58;;;;;;;6.00;3.10;;;23.60;63.30;;;;;;5133699;27;20031;-66
2023/08/15 00:34:23;;;;;;;3.70;3.13;;;23.50;63.80;;;;;;5133891;27;20048;-66
2023/08/15 00:36:49;;;;;;;4.57;3.50;;;23.50;63.90;;;;;;5133331;27;20031;-67
2023/08/15 00:39:14;;;;;;;3.72;3.20;;;23.40;64.00;;;;;;5133632;27;20023;-67
2023/08/15 00:41:40;;;;;;;4.00;3.40;;;23.40;64.40;;;;;;5133055;27;20168;-67
2023/08/15 00:44:06;;;;;;;3.90;3.47;;;23.30;64.50;;;;;;5133780;27;20031;-67
2023/08/15 00:46:32;;;;;;;5.22;3.45;;;23.30;64.70;;;;;;5133597;27;20377;-67
2023/08/15 00:48:59;;;;;;;4.25;3.05;;;23.30;64.90;;;;;;5132812;27;20482;-67
2023/08/15 00:51:26;;;;;;;3.80;3.40;;;23.30;64.90;;;;;;5133152;27;20035;-67
2023/08/15 00:53:52;;;;;;;4.63;3.00;;;23.20;65.20;;;;;;5132955;28;20444;-67
2023/08/15 00:56:19;;;;;;;5.57;3.70;;;23.20;65.50;;;;;;5133566;28;20034;-67
2023/08/15 00:58:45;;;;;;;8.18;3.83;;;23.20;65.70;;;;;;5132869;28;20023;-67
2023/08/15 01:01:15;;;;;;;6.15;3.50;;;23.10;65.80;;;;;;5133410;28;20493;-67
2023/08/15 01:03:41;;;;;;;3.58;3.20;;;23.10;66.10;;;;;;5132791;28;20027;-67
2023/08/15 01:06:07;;;;;;;7.13;3.30;;;23.00;66.20;;;;;;5130289;28;20072;-67
2023/08/15 01:08:33;;;;;;;4.25;3.38;;;23.00;66.60;;;;;;5133093;28;20428;-67
2023/08/15 01:11:04;;;;;;;4.22;3.45;;;22.90;66.60;;;;;;5133010;28;20060;-67
2023/08/15 01:13:39;;;;;;;6.90;3.70;;;22.90;66.80;;;;;;5133957;27;20030;-67
2023/08/15 01:16:12;;;;;;;5.10;3.50;;;22.90;67.00;;;;;;5137976;27;20023;-67
2023/08/15 01:18:45;;;;;;;4.35;3.45;;;22.90;67.00;;;;;;5137681;27;20042;-67
2023/08/15 01:21:14;;;;;;;4.57;3.92;;;22.80;67.20;;;;;;5137477;27;20084;-68
2023/08/15 01:23:42;;;;;;;4.63;3.33;;;22.80;67.50;;;;;;5136787;27;20328;-68
2023/08/15 01:26:08;;;;;;;4.90;3.63;;;22.70;67.90;;;;;;5137085;27;20065;-68
2023/08/15 01:28:33;;;;;;;7.07;3.92;;;22.70;68.10;;;;;;5137515;27;20027;-68
2023/08/15 01:31:12;;;;;;;6.15;3.58;;;22.60;68.90;;;;;;5137011;27;20029;-68
2023/08/15 01:34:00;;;;;;;4.68;4.00;;;22.60;68.70;;;;;;5137247;27;20023;-68
2023/08/15 01:36:30;;;;;;;4.97;3.60;;;22.60;68.80;;;;;;5137407;27;20027;-68
2023/08/15 01:39:00;;;;;;;4.53;4.07;;;22.50;69.30;;;;;;5136880;27;20181;-68
2023/08/15 01:41:28;;;;;;;3.40;3.10;;;22.50;69.90;;;;;;5137183;27;20360;-68
2023/08/15 01:43:54;;;;;;;4.75;3.60;;;22.50;70.00;;;;;;5136497;27;20047;-69
2023/08/15 01:46:20;;;;;;;4.07;3.70;;;22.50;70.30;;;;;;5137069;27;20024;-68
2023/08/15 01:48:46;;;;;;;6.78;3.70;;;22.50;70.80;;;;;;5136478;27;20415;-68
2023/08/15 01:51:11;;;;;;;5.63;3.90;;;22.40;71.50;;;;;;5137110;27;20099;-68
2023/08/15 01:53:38;;;;;;;4.72;3.53;;;22.40;71.70;;;;;;5136948;27;20372;-68
2023/08/15 01:56:04;;;;;;;4.15;3.75;;;22.40;72.40;;;;;;5136146;27;20486;-68
2023/08/15 01:58:30;;;;;;;5.70;4.03;;;22.30;72.60;;;;;;5136900;27;20072;-68
2023/08/15 02:00:56;;;;;;;4.63;4.07;;;22.30;73.70;;;;;;5136028;27;20047;-67
2023/08/15 02:03:22;;;;;;;4.22;3.55;;;22.20;73.60;;;;;;5118803;27;20023;-68
2023/08/15 02:05:47;;;;;;;5.60;4.25;;;22.20;73.80;;;;;;5136278;27;20360;-67
2023/08/15 02:08:13;;;;;;;6.80;3.78;;;22.20;74.20;;;;;;5136830;27;20031;-68
2023/08/15 02:10:39;;;;;;;6.68;4.20;;;22.10;74.10;;;;;;5136708;27;20059;-67
2023/08/15 02:13:04;;;;;;;5.88;4.20;;;22.10;74.00;;;;;;5135976;27;20479;-68
2023/08/15 02:15:30;;;;;;;4.45;4.00;;;22.10;74.00;;;;;;5136530;27;20024;-69
2023/08/15 02:17:55;;;;;;;4.90;3.50;;;22.20;74.00;;;;;;5136082;27;20035;-67
2023/08/15 02:20:21;;;;;;;4.72;3.75;;;22.10;74.30;;;;;;5136009;27;20553;-67
2023/08/15 02:22:47;;;;;;;4.68;4.03;;;22.10;74.40;;;;;;5135811;27;20118;-68
2023/08/15 02:25:12;;;;;;;6.43;4.10;;;22.10;74.50;;;;;;5135642;27;20034;-67
2023/08/15 02:27:38;;;;;;;5.35;4.13;;;22.10;74.60;;;;;;5136175;27;20027;-67
2023/08/15 02:30:05;;;;;;;5.03;4.20;;;22.10;75.00;;;;;;5135715;27;20444;-67
2023/08/15 02:32:31;;;;;;;12.18;4.18;;;22.00;74.90;;;;;;5117629;27;20503;-67
2023/08/15 02:34:56;;;;;;;6.88;4.25;;;22.10;75.00;;;;;;5135532;27;20055;-67
2023/08/15 02:37:22;;;;;;;4.38;3.97;;;22.10;75.10;;;;;;5117494;27;20114;-67
2023/08/15 02:39:48;;;;;;;4.47;3.95;;;22.10;75.10;;;;;;5135286;27;20035;-68
2023/08/15 02:42:13;;;;;;;4.93;3.97;;;22.10;75.00;;;;;;5135514;27;20030;-67
2023/08/15 02:44:39;;;;;;;5.65;4.30;;;22.10;74.80;;;;;;5135958;27;20031;-67
2023/08/15 02:47:05;;;;;;;5.18;3.72;;;22.10;74.90;;;;;;5135400;27;20102;-67
2023/08/15 02:49:30;;;;;;;8.73;4.50;;;22.10;75.10;;;;;;5135231;27;20479;-68
2023/08/15 02:51:56;;;;;;;5.03;4.50;;;22.10;75.30;;;;;;5135078;27;20039;-68
2023/08/15 02:54:21;;;;;;;5.00;4.28;;;22.00;75.40;;;;;;5117289;27;20042;-67
2023/08/15 02:56:47;;;;;;;7.00;3.85;;;22.10;75.50;;;;;;5135679;27;20098;-67
2023/08/15 02:59:13;;;;;;;5.43;4.50;;;22.10;75.60;;;;;;5135710;27;20043;-67
2023/08/15 03:01:38;;;;;;;6.88;4.22;;;22.00;75.60;;;;;;5135156;27;20429;-67
2023/08/15 03:04:08;;;;;;;5.70;4.57;;;22.00;75.60;;;;;;5135138;27;20072;-68
2023/08/15 03:06:35;;;;;;;5.68;4.20;;;22.00;75.50;;;;;;5135592;27;20030;-68
2023/08/15 03:09:00;;;;;;;4.63;4.22;;;22.00;75.80;;;;;;5135143;27;20478;-67
2023/08/15 03:11:26;;;;;;;10.25;4.50;;;22.00;76.00;;;;;;5134416;27;20031;-67
2023/08/15 03:13:53;;;;;;;4.93;4.43;;;22.00;76.50;;;;;;5132608;27;20031;-67
2023/08/15 03:16:18;;;;;;;8.05;4.22;;;22.00;76.30;;;;;;5135387;27;20071;-67
2023/08/15 03:18:44;;;;;;;5.65;4.13;;;22.00;76.30;;;;;;5135039;27;20110;-67
2023/08/15 03:21:10;;;;;;;7.68;3.90;;;21.90;76.40;;;;;;5134535;27;20857;-67
2023/08/15 03:23:37;;;;;;;5.88;4.13;;;21.90;76.40;;;;;;5135250;27;20030;-68
2023/08/15 03:26:04;;;;;;;4.88;4.28;;;21.90;76.70;;;;;;5133471;27;20038;-67
2023/08/15 03:28:31;;;;;;;7.47;4.07;;;21.90;76.70;;;;;;5133936;27;20027;-68
2023/08/15 03:30:56;;;;;;;6.55;4.38;;;21.90;77.00;;;;;;5134261;27;20023;-68
2023/08/15 03:33:23;;;;;;;5.63;4.50;;;21.90;77.20;;;;;;5135147;27;20034;-68
2023/08/15 03:35:50;;;;;;;6.88;4.25;;;21.80;77.50;;;;;;5127015;27;20423;-68
2023/08/15 03:38:21;;;;;;;6.68;4.50;;;21.80;77.80;;;;;;5114276;28;20130;-68
2023/08/15 03:40:49;;;;;;;5.07;4.55;;;21.90;78.00;;;;;;5114176;28;20407;-67
2023/08/15 03:43:15;;;;;;;8.57;4.75;;;21.80;78.10;;;;;;5113570;28;20474;-66
2023/08/15 03:45:41;;;;;;;6.60;4.30;;;21.80;78.90;;;;;;5114090;28;20098;-66
2023/08/15 03:48:08;;;;;;;8.55;4.40;;;21.80;79.30;;;;;;5113345;28;20028;-68
2023/08/15 03:50:35;;;;;;;7.85;4.60;;;21.80;79.60;;;;;;5114185;28;20515;-68
2023/08/15 03:53:00;;;;;;;6.25;4.63;;;21.80;79.80;;;;;;5113348;28;20106;-68
2023/08/15 03:55:27;;;;;;;6.07;4.85;;;21.70;79.80;;;;;;5113494;28;20051;-69
2023/08/15 03:57:52;;;;;;;5.32;4.55;;;21.70;80.20;;;;;;5113646;28;20031;-67
2023/08/15 04:00:18;;;;;;;6.22;4.28;;;21.70;80.50;;;;;;5113303;28;20080;-67
2023/08/15 04:02:44;;;;;;;5.57;4.95;;;21.70;80.80;;;;;;5113682;28;20034;-67
2023/08/15 04:05:11;;;;;;;6.68;4.50;;;21.70;80.90;;;;;;5113174;28;20471;-67
2023/08/15 04:07:37;;;;;;;6.03;4.90;;;21.70;81.10;;;;;;5113615;28;20027;-67
2023/08/15 04:10:03;;;;;;;5.97;4.70;;;21.70;81.40;;;;;;5113209;28;20091;-68
2023/08/15 04:12:29;;;;;;;5.40;4.10;;;21.70;81.10;;;;;;5113616;28;20031;-68
2023/08/15 04:14:54;;;;;;;5.00;4.47;;;21.70;81.30;;;;;;5095182;28;20031;-70
2023/08/15 04:17:20;;;;;;;5.97;4.32;;;21.70;81.20;;;;;;5113477;28;20024;-68
2023/08/15 04:19:46;;;;;;;9.13;5.53;;;21.70;81.50;;;;;;5113565;28;20373;-67
2023/08/15 04:22:12;;;;;;;6.05;4.90;;;21.70;81.20;;;;;;5112809;28;20482;-68
2023/08/15 04:24:37;;;;;;;6.15;4.82;;;21.70;81.10;;;;;;5113230;28;20062;-68
2023/08/15 04:27:06;;;;;;;6.70;4.43;;;21.70;81.40;;;;;;5112954;28;20023;-68
2023/08/15 04:29:32;;;;;;;5.20;4.70;;;21.70;81.40;;;;;;5113360;28;20035;-68
2023/08/15 04:31:57;;;;;;;6.32;5.00;;;21.70;81.50;;;;;;5124919;27;20382;-68
2023/08/15 04:34:23;;;;;;;6.68;4.75;;;21.70;81.60;;;;;;5134151;27;20482;-68
2023/08/15 04:36:49;;;;;;;5.13;4.45;;;21.70;82.40;;;;;;5133764;27;20129;-68
2023/08/15 04:39:15;;;;;;;6.13;4.22;;;21.80;81.60;;;;;;5132872;27;20027;-67
2023/08/15 04:41:41;;;;;;;7.85;4.50;;;21.80;82.10;;;;;;5133811;27;20027;-67
2023/08/15 04:44:07;;;;;;;8.45;4.57;;;21.80;82.50;;;;;;5133190;27;20447;-67
2023/08/15 04:46:33;;;;;;;7.30;4.45;;;21.90;82.60;;;;;;5133154;27;20030;-67
2023/08/15 04:48:59;;;;;;;5.03;4.35;;;21.90;82.60;;;;;;5132030;27;20075;-67
2023/08/15 04:51:24;;;;;;;5.60;4.35;;;22.00;82.60;;;;;;5133321;27;20026;-67
2023/08/15 04:53:50;;;;;;;5.88;4.50;;;22.10;81.90;;;;;;5133594;28;20031;-67
2023/08/15 04:56:16;;;;;;;5.60;4.95;;;22.30;81.50;;;;;;5133227;28;20028;-67
2023/08/15 04:58:42;;;;;;;6.15;4.43;;;22.40;80.70;;;;;;5133250;28;20460;-67
2023/08/15 05:01:08;;;;;;;5.25;4.75;;;22.40;80.20;;;;;;5132882;28;20035;-67
2023/08/15 05:03:33;;;;;;;6.00;4.63;;;22.50;80.10;;;;;;5133591;28;20054;-67
2023/08/15 05:05:59;;;;;;;4.65;4.13;;;22.50;80.30;;;;;;5115156;28;20378;-70
2023/08/15 05:08:24;;;;;;;7.00;4.78;;;22.50;80.00;;;;;;5133268;28;20360;-66
2023/08/15 05:10:51;;;;;;;7.75;5.25;;;22.50;79.70;;;;;;5128100;28;20036;-67
2023/08/15 05:13:18;;;;;;;10.85;5.13;;;22.60;79.70;;;;;;5133050;28;20463;-67
2023/08/15 05:15:43;;;;;;;5.95;5.00;;;22.50;80.00;;;;;;5133288;28;20066;-67
2023/08/15 05:18:10;;;;;;;10.27;4.93;;;22.60;80.10;;;;;;5133002;28;20079;-67
2023/08/15 05:20:36;;;;;;;5.32;4.78;;;22.60;80.40;;;;;;5133237;28;20034;-67
2023/08/15 05:23:01;;;;;;;7.30;4.63;;;22.60;80.50;;;;;;5132883;28;20032;-68
2023/08/15 05:25:27;;;;;;;7.63;4.95;;;22.60;80.60;;;;;;5133284;28;20080;-66
2023/08/15 05:27:54;;;;;;;6.82;4.90;;;22.60;80.30;;;;;;5133363;28;20367;-67
2023/08/15 05:30:19;;;;;;;5.72;5.05;;;22.70;80.40;;;;;;5132636;28;20137;-66
2023/08/15 05:32:45;;;;;;;8.88;5.50;;;22.70;80.80;;;;;;5133032;28;20028;-67
2023/08/15 05:35:12;;;;;;;5.72;4.50;;;22.70;80.80;;;;;;5132402;28;20019;-67
2023/08/15 05:37:37;;;;;;;7.57;5.53;;;22.80;80.90;;;;;;5114803;28;20027;-66
2023/08/15 05:40:04;;;;;;;5.75;4.50;;;22.90;81.10;;;;;;5132727;28;20065;-67
2023/08/15 05:42:30;;;;;;;5.28;4.57;;;23.10;80.00;;;;;;5133008;28;20055;-68
2023/08/15 05:44:55;;;;;;;5.40;4.90;;;23.30;78.50;;;;;;5132956;28;20062;-67
2023/08/15 05:47:21;;;;;;;6.28;4.68;;;23.60;77.80;;;;;;5133007;28;20031;-67
2023/08/15 05:49:47;;;;;;;4.53;4.13;;;23.90;77.50;;;;;;5133240;28;20526;-66
2023/08/15 05:52:12;;;;;;;8.73;4.68;;;24.20;75.40;;;;;;5132696;28;20051;-67
2023/08/15 05:54:38;;;;;;;8.00;4.78;;;24.60;75.00;;;;;;5132265;28;20382;-67
2023/08/15 05:57:04;;;;;;;5.28;4.18;;;25.00;72.70;;;;;;5132827;28;20028;-70
2023/08/15 05:59:30;;;;;;;6.10;4.85;;;25.50;70.30;;;;;;5133532;27;20456;-66
2023/08/15 06:01:56;;;;;;;6.45;3.75;;;26.10;69.00;;;;;;5136994;27;20054;-68
2023/08/15 06:04:22;;;;;;;5.82;3.75;;;27.00;66.10;;;;;;5136118;27;20031;-69
2023/08/15 06:06:48;;;;;;;6.57;3.65;;;28.00;62.80;;;;;;5136276;27;20031;-69
2023/08/15 06:09:14;;;;;;;8.02;3.63;;;29.00;58.80;;;;;;5136386;27;20054;-70
2023/08/15 06:11:39;;;;;;;4.75;3.63;;;29.70;56.30;;;;;;5136558;27;20031;-70
2023/08/15 06:14:05;;;;;;;8.57;4.15;;;30.30;54.50;;;;;;5136639;27;20038;-72
2023/08/15 06:16:31;;;;;;;4.47;2.97;;;30.70;53.00;;;;;;5136600;27;20509;-71
2023/08/15 06:18:56;;;;;;;6.35;4.32;;;31.00;51.80;;;;;;5136596;27;20026;-69
2023/08/15 06:21:22;;;;;;;4.03;3.63;;;31.20;51.50;;;;;;5132447;27;20032;-69
2023/08/15 06:23:48;;;;;;;4.80;3.72;;;31.30;50.90;;;;;;5122112;27;20019;-69
2023/08/15 06:26:13;;;;;;;9.15;4.05;;;31.20;50.90;;;;;;5128729;27;20095;-69
2023/08/15 06:28:39;;;;;;;6.30;3.30;;;31.10;51.10;;;;;;5135716;27;20027;-69
2023/08/15 06:31:04;;;;;;;7.95;4.03;;;30.80;52.00;;;;;;5135877;27;20027;-68
2023/08/15 06:33:30;;;;;;;4.03;3.63;;;30.70;52.10;;;;;;5135690;27;20121;-68
2023/08/15 06:35:56;;;;;;;7.03;3.53;;;30.80;51.70;;;;;;5136141;27;20472;-69
2023/08/15 06:38:21;;;;;;;7.00;3.58;;;30.60;52.10;;;;;;5134814;27;20027;-69
2023/08/15 06:40:48;;;;;;;6.10;4.03;;;30.90;52.00;;;;;;5134974;27;20035;-70
2023/08/15 06:43:14;;;;;;;4.13;3.70;;;31.10;50.80;;;;;;5135268;27;20027;-68
2023/08/15 06:45:39;;;;;;;6.53;3.58;;;31.40;50.30;;;;;;5135989;27;20026;-69
2023/08/15 06:48:06;;;;;;;6.50;3.67;;;31.60;49.80;;;;;;5135491;27;20066;-69
2023/08/15 06:50:34;;;;;;;7.03;3.50;;;31.80;49.50;;;;;;5135520;27;20528;-68
2023/08/15 06:53:01;;;;;;;5.45;3.55;;;32.00;48.70;;;;;;5135726;27;20103;-69
2023/08/15 06:55:27;;;;;;;4.55;3.58;;;32.40;48.00;;;;;;5134417;27;20027;-70
2023/08/15 06:57:53;;;;;;;7.18;3.80;;;32.90;48.00;;;;;;5134877;27;20431;-70
2023/08/15 07:00:19;;;;;;;4.40;3.25;;;33.50;46.50;;;;;;5134588;27;20098;-69
2023/08/15 07:02:45;;;;;;;5.35;3.30;;;34.00;45.90;;;;;;5135052;27;20035;-70
2023/08/15 07:05:10;;;;;;;6.63;3.92;;;34.40;44.80;;;;;;5132592;27;20022;-70
2023/08/15 07:07:39;;;;;;;4.20;3.75;;;34.70;44.50;;;;;;5134722;27;20019;-70
2023/08/15 07:10:06;;;;;;;7.90;3.65;;;35.20;43.70;;;;;;5134865;27;20073;-70
2023/08/15 07:12:33;;;;;;;4.82;3.50;;;35.50;42.70;;;;;;5132228;27;20019;-69
2023/08/15 07:15:00;;;;;;;4.95;3.00;;;36.20;42.60;;;;;;5134986;27;20492;-69
2023/08/15 07:17:25;;;;;;;4.80;3.15;;;36.70;41.30;;;;;;5134517;27;20047;-69
2023/08/15 07:19:51;;;;;;;6.20;3.22;;;36.70;40.80;;;;;;5134304;27;20031;-69
2023/08/15 07:22:16;;;;;;;3.83;3.13;;;37.00;40.70;;;;;;5134649;27;20046;-69
2023/08/15 07:24:42;;;;;;;6.30;3.45;;;37.30;40.50;;;;;;5135100;27;20023;-67
2023/08/15 07:27:08;;;;;;;5.57;3.55;;;37.50;39.30;;;;;;5134361;27;20019;-68
2023/08/15 07:29:33;;;;;;;3.80;3.10;;;37.90;39.50;;;;;;5116642;27;20110;-67
2023/08/15 07:31:59;;;;;;;4.15;3.50;;;38.10;38.90;;;;;;5135366;27;20459;-68
2023/08/15 07:34:25;;;;;;;5.75;3.92;;;38.30;38.80;;;;;;5134702;27;20023;-68
2023/08/15 07:36:50;;;;;;;4.78;3.33;;;38.50;38.10;;;;;;5134552;27;20019;-69
2023/08/15 07:39:16;;;;;;;4.38;3.35;;;38.70;37.70;;;;;;5133737;27;20023;-69
2023/08/15 07:41:41;;;;;;;5.60;3.00;;;39.00;37.40;;;;;;5134585;27;20019;-69
2023/08/15 07:44:07;;;;;;;4.80;3.05;;;39.00;36.90;;;;;;5134822;27;20123;-69
2023/08/15 07:46:33;;;;;;;4.68;3.60;;;39.00;37.30;;;;;;5116525;27;20027;-69
2023/08/15 07:48:59;;;;;;;8.38;3.00;;;39.10;37.30;;;;;;5134168;27;20069;-69
2023/08/15 07:51:25;;;;;;;5.65;3.05;;;39.20;37.00;;;;;;5133681;27;20127;-69
2023/08/15 07:53:50;;;;;;;4.78;3.30;;;39.20;37.10;;;;;;5134217;27;20353;-69
2023/08/15 07:56:16;;;;;;;6.53;3.22;;;38.90;37.20;;;;;;5133281;27;20223;-69
2023/08/15 07:58:41;;;;;;;5.57;3.50;;;38.90;37.40;;;;;;5133345;27;20091;-69
2023/08/15 08:01:08;;;;;;;3.35;2.83;;;38.50;37.80;;;;;;5133572;27;20030;-70
2023/08/15 08:03:38;;;;;;;9.63;2.97;;;38.60;37.70;;;;;;5133578;27;20045;-69
2023/08/15 08:06:04;;;;;;;;;;;38.70;37.40;;;;;;5131844;27;20073;-68
2023/08/15 08:08:29;;;;;;;5.50;3.50;;;38.20;37.80;;;;;;5132972;27;19947;-69
2023/08/15 08:10:55;;;;;;;3.55;3.05;;;38.20;38.10;;;;;;5133847;27;20106;-69
2023/08/15 08:13:21;;;;;;;7.88;3.35;;;37.90;37.40;;;;;;5133019;27;20411;-69
2023/08/15 08:15:47;;;;;;;4.88;3.30;;;37.90;38.00;;;;;;5133115;27;20027;-69
2023/08/15 08:18:13;;;;;;;3.75;3.20;;;38.00;37.90;;;;;;5114627;27;20027;-69
2023/08/15 08:20:39;;;;;;;3.80;3.10;;;37.50;38.10;;;;;;5133457;27;20110;-68
2023/08/15 08:23:05;;;;;;;3.83;3.08;;;37.80;38.70;;;;;;5132762;27;20093;-69
2023/08/15 08:25:31;;;;;;;8.60;3.65;;;37.60;39.00;;;;;;5133018;27;20050;-69
2023/08/15 08:27:56;;;;;;;6.10;3.38;;;37.00;39.30;;;;;;5133299;27;20033;-69
2023/08/15 08:30:22;;;;;;;7.70;3.35;;;36.40;39.80;;;;;;5132759;27;20462;-69
2023/08/15 08:32:50;;;;;;;5.22;3.20;;;35.90;40.70;;;;;;5132789;27;20094;-69
2023/08/15 08:35:16;;;;;;;4.35;3.22;;;35.80;41.20;;;;;;5130080;27;20098;-68
2023/08/15 08:37:47;;;;;;;4.65;3.30;;;35.20;41.70;;;;;;5132658;27;20070;-68
2023/08/15 08:40:13;;;;;;;8.25;3.42;;;35.10;42.20;;;;;;5132891;27;20019;-68
2023/08/15 08:42:40;;;;;;;5.13;3.13;;;34.80;41.80;;;;;;5133661;27;20034;-71
2023/08/15 08:45:09;;;;;;;4.03;3.47;;;34.50;42.50;;;;;;5133304;27;20039;-69
2023/08/15 08:47:37;;;;;;;4.50;3.00;;;34.10;43.00;;;;;;5132773;27;20462;-68
2023/08/15 08:50:06;;;;;;;7.53;3.85;;;33.90;43.50;;;;;;5132984;27;20039;-70
2023/08/15 08:52:31;;;;;;;7.80;3.58;;;33.80;44.00;;;;;;5132825;27;20027;-68
2023/08/15 08:54:57;;;;;;;4.75;3.35;;;33.60;44.50;;;;;;5133147;28;20053;-67
2023/08/15 08:57:26;;;;;;;5.70;3.50;;;33.30;44.80;;;;;;5132822;28;20025;-67
2023/08/15 08:59:55;;;;;;;4.55;3.25;;;33.20;45.50;;;;;;5131904;28;20138;-67
2023/08/15 09:02:22;;;;;;;4.78;3.20;;;32.80;46.00;;;;;;5127123;28;20019;-68
2023/08/15 09:04:48;;;;;;;7.47;3.50;;;32.80;46.80;;;;;;5132906;28;20023;-67
2023/08/15 09:07:16;;;;;;;3.45;3.15;;;32.80;46.80;;;;;;5132537;28;20105;-68
2023/08/15 09:09:41;;;;;;;3.50;3.20;;;32.90;46.70;;;;;;5133084;28;20079;-68
2023/08/15 09:12:07;;;;;;;3.47;3.17;;;32.70;46.90;;;;;;5133262;28;20528;-68
2023/08/15 09:14:39;;;;;;;3.47;3.17;;;32.40;46.90;;;;;;5133494;28;20027;-71
2023/08/15 09:17:04;;;;;;;7.93;3.75;;;32.10;47.60;;;;;;5133705;28;20072;-68
2023/08/15 09:19:37;;;;;;;8.30;3.38;;;32.00;48.30;;;;;;5132928;28;20520;-69
2023/08/15 09:22:03;;;;;;;7.65;3.53;;;31.80;48.20;;;;;;5133296;28;20050;-69
2023/08/15 09:24:29;;;;;;;6.07;3.40;;;31.80;48.80;;;;;;5132051;28;20027;-70
2023/08/15 09:26:54;;;;;;;6.40;3.80;;;31.70;48.50;;;;;;5133041;28;20026;-69
2023/08/15 09:29:22;;;;;;;5.60;3.72;;;31.60;48.40;;;;;;5132539;28;20102;-69
2023/08/15 09:31:49;;;;;;;7.28;3.45;;;31.50;48.60;;;;;;5132326;28;20099;-69
2023/08/15 09:34:15;;;;;;;5.40;3.45;;;31.40;48.40;;;;;;5132929;27;20019;-69
2023/08/15 09:36:41;;;;;;;3.88;3.53;;;31.40;48.40;;;;;;5136702;27;20027;-69
2023/08/15 09:39:08;;;;;;;4.50;3.15;;;31.40;48.50;;;;;;5136599;27;20050;-70
2023/08/15 09:41:39;;;;;;;6.07;3.42;;;31.30;49.30;;;;;;5136210;27;20042;-69
2023/08/15 09:44:04;;;;;;;;;;;31.30;49.20;;;;;;5137356;27;20118;-67
2023/08/15 09:46:31;;;;;;;7.47;3.70;;;31.40;49.60;;;;;;5117977;27;19986;-67
2023/08/15 09:48:57;;;;;;;4.35;3.50;;;31.40;49.20;;;;;;5136030;27;21893;-66
2023/08/15 09:51:25;;;;;;;6.70;3.70;;;31.50;49.10;;;;;;5135997;27;20035;-65
2023/08/15 09:53:52;;;;;;;7.72;3.45;;;31.40;48.10;;;;;;5133632;27;20035;-64
2023/08/15 09:56:20;;;;;;;6.35;3.55;;;31.50;49.00;;;;;;5135662;27;20027;-66
2023/08/15 09:58:45;;;;;;;7.10;3.63;;;31.40;48.80;;;;;;5136223;27;20035;-67
2023/08/15 10:01:15;;;;;;;7.45;3.70;;;31.30;48.80;;;;;;5135852;27;20387;-65
2023/08/15 10:03:42;;;;;;;6.38;3.85;;;31.30;48.80;;;;;;5135932;27;20023;-65
2023/08/15 10:06:09;;;;;;;3.58;3.28;;;31.30;48.90;;;;;;5135908;27;20023;-65
2023/08/15 10:08:39;;;;;;;5.32;3.80;;;31.40;49.30;;;;;;5135647;27;20042;-65
2023/08/15 10:11:10;;;;;;;5.53;3.78;;;31.40;49.30;;;;;;5135838;27;20083;-66
2023/08/15 10:13:38;;;;;;;5.15;3.55;;;31.50;49.40;;;;;;5135612;27;20023;-66
2023/08/15 10:16:06;;;;;;;5.97;3.42;;;31.50;49.00;;;;;;5117528;27;20102;-65
2023/08/15 10:18:32;;;;;;;4.25;3.85;;;31.40;49.10;;;;;;5135632;27;20046;-66
2023/08/15 10:20:58;;;;;;;3.70;3.40;;;31.40;49.50;;;;;;5135565;27;20466;-65
2023/08/15 10:23:34;;;;;;;6.30;3.63;;;31.40;49.70;;;;;;5116267;27;20037;-65
2023/08/15 10:26:01;;;;;;;5.25;3.42;;;31.50;50.10;;;;;;5133094;27;20030;-67
2023/08/15 10:28:33;;;;;;;7.53;3.42;;;31.50;50.00;;;;;;5135039;27;20038;-65
2023/08/15 10:30:59;;;;;;;4.13;3.60;;;31.50;50.30;;;;;;5134189;27;20045;-65
2023/08/15 10:33:28;;;;;;;6.32;3.55;;;31.50;49.50;;;;;;5131983;27;20015;-65
2023/08/15 10:35:54;;;;;;;8.77;3.72;;;31.40;50.00;;;;;;5135372;27;20026;-65
2023/08/15 10:38:31;;;;;;;5.57;3.55;;;31.50;50.50;;;;;;5135142;27;20027;-65
2023/08/15 10:41:06;;;;;;;6.35;3.88;;;31.50;50.40;;;;;;5134041;27;20094;-65
2023/08/15 10:43:33;;;;;;;5.70;3.80;;;31.60;50.70;;;;;;5129695;27;20536;-66
2023/08/15 10:46:04;;;;;;;7.78;3.40;;;31.50;49.90;;;;;;5134843;27;20030;-65
2023/08/15 10:48:37;;;;;;;;;;;31.60;49.50;;;;;;5114439;27;20057;-65
2023/08/15 10:51:04;;;;;;;9.13;3.80;;;31.60;50.30;;;;;;5135275;27;19983;-65
2023/08/15 10:53:30;;;;;;;4.13;3.63;;;31.60;49.90;;;;;;5135159;27;20068;-65
2023/08/15 10:55:58;;;;;;;5.97;3.42;;;31.70;49.80;;;;;;5134953;27;20023;-65
2023/08/15 10:58:25;;;;;;;8.20;3.17;;;31.60;49.60;;;;;;5134589;27;20131;-65
2023/08/15 11:00:51;;;;;;;5.18;3.17;;;31.70;49.30;;;;;;5135284;27;20041;-65
2023/08/15 11:03:17;;;;;;;4.05;3.30;;;31.70;49.30;;;;;;5135658;27;20039;-65
2023/08/15 11:05:42;;;;;;;6.05;3.10;;;31.60;49.40;;;;;;5135561;27;20058;-66
2023/08/15 11:08:13;;;;;;;7.18;3.40;;;31.60;49.60;;;;;;5132196;27;20019;-66
2023/08/15 11:10:47;;;;;;;3.92;3.22;;;31.70;49.20;;;;;;5134957;27;20031;-66
2023/08/15 11:13:13;;;;;;;6.38;3.80;;;31.70;47.50;;;;;;5135386;27;20035;-66
2023/08/15 11:15:39;;;;;;;5.75;3.65;;;31.70;47.50;;;;;;5134861;27;20968;-66
2023/08/15 11:18:05;;;;;;;6.65;3.40;;;31.80;47.80;;;;;;5135641;27;20371;-66
2023/08/15 11:20:30;;;;;;;4.97;3.80;;;31.90;48.10;;;;;;5135002;27;20031;-65
2023/08/15 11:22:57;;;;;;;5.18;3.55;;;31.90;47.30;;;;;;5135455;27;20027;-66
2023/08/15 11:25:23;;;;;;;9.43;3.80;;;31.90;46.70;;;;;;5134736;27;20038;-66
2023/08/15 11:27:50;;;;;;;7.63;3.35;;;31.80;46.70;;;;;;5135139;27;20027;-66
2023/08/15 11:30:16;;;;;;;5.57;3.40;;;31.90;47.50;;;;;;5134987;27;20015;-65
2023/08/15 11:32:42;;;;;;;4.30;3.50;;;31.90;47.40;;;;;;5134521;27;20425;-65
2023/08/15 11:35:10;;;;;;;5.85;3.72;;;31.90;47.00;;;;;;5134846;27;20056;-66
2023/08/15 11:37:36;;;;;;;4.18;3.60;;;31.90;47.30;;;;;;5134505;27;20102;-66
2023/08/15 11:40:06;;;;;;;4.32;3.92;;;31.90;46.90;;;;;;5134470;27;20468;-66
2023/08/15 11:42:34;;;;;;;10.07;3.47;;;31.90;47.50;;;;;;5134467;27;20052;-66
2023/08/15 11:45:06;;;;;;;3.85;3.40;;;31.90;47.30;;;;;;5134861;27;20276;-66
2023/08/15 11:47:32;;;;;;;9.07;4.10;;;31.90;47.60;;;;;;5134457;27;20035;-66
2023/08/15 11:49:57;;;;;;;8.88;4.10;;;32.00;47.80;;;;;;5134692;27;20376;-65
2023/08/15 11:52:23;;;;;;;4.55;3.45;;;32.00;47.30;;;;;;5134416;27;20069;-67
2023/08/15 11:54:49;;;;;;;5.78;3.70;;;32.00;46.60;;;;;;5134755;27;20027;-66
2023/08/15 11:57:32;;;;;;;7.05;3.70;;;32.00;46.30;;;;;;5133869;27;20023;-66
2023/08/15 11:59:57;;;;;;;5.40;3.80;;;32.00;46.70;;;;;;5134284;27;20031;-66
2023/08/15 12:02:23;;;;;;;6.28;3.63;;;32.00;46.80;;;;;;5133983;27;20038;-70
2023/08/15 12:04:48;;;;;;;5.95;3.72;;;32.00;46.60;;;;;;5134602;27;20058;-66
2023/08/15 12:07:14;;;;;;;4.00;3.70;;;32.10;47.00;;;;;;5134353;27;20095;-66
2023/08/15 12:09:40;;;;;;;5.22;3.47;;;32.10;46.30;;;;;;5133799;27;20034;-65
2023/08/15 12:12:06;;;;;;;4.63;3.80;;;32.00;46.30;;;;;;5133958;27;20023;-65
2023/08/15 12:14:31;;;;;;;4.53;3.80;;;31.90;47.00;;;;;;5133553;27;20027;-66
2023/08/15 12:16:57;;;;;;;6.35;3.58;;;31.80;46.00;;;;;;5133830;27;20044;-66
2023/08/15 12:19:22;;;;;;;6.10;3.75;;;31.70;46.80;;;;;;5133630;27;20130;-64
2023/08/15 12:21:49;;;;;;;3.90;3.60;;;31.60;47.50;;;;;;5133203;27;20030;-65
2023/08/15 12:24:15;;;;;;;3.85;3.45;;;31.60;47.60;;;;;;5133749;27;20023;-65
2023/08/15 12:26:41;;;;;;;3.40;3.10;;;31.60;47.60;;;;;;5134058;27;20030;-65
2023/08/15 12:29:06;;;;;;;3.85;3.35;;;31.40;47.30;;;;;;5134327;27;20027;-65
2023/08/15 12:31:32;;;;;;;6.45;3.80;;;31.30;47.30;;;;;;5133783;27;20489;-65
2023/08/15 12:33:57;;;;;;;4.60;3.58;;;31.20;47.50;;;;;;5134323;27;20030;-65
2023/08/15 12:36:23;;;;;;;6.10;3.55;;;31.20;47.00;;;;;;5134258;27;20038;-66
2023/08/15 12:38:49;;;;;;;5.75;3.70;;;31.10;47.40;;;;;;5133388;27;20463;-66
2023/08/15 12:41:14;;;;;;;4.50;3.70;;;31.00;48.00;;;;;;5133900;27;20083;-65
2023/08/15 12:43:40;;;;;;;6.45;3.63;;;31.00;48.30;;;;;;5133540;27;20031;-68